sensor_id;sensor_type;location;lat;lon;timestamp;P1;durP1;ratioP1;P2;durP2;ratioP2
28766;SDS011;15921;52.034;20.650;2023-07-13T00:02:23;8.57;;;5.88;;
28766;SDS011;15921;52.034;20.650;2023-07-13T00:04:49;6.18;;;5.32;;
28766;SDS011;15921;52.034;20.650;2023-07-13T00:07:15;12.50;;;6.07;;
28766;SDS011;15921;52.034;20.650;2023-07-13T00:09:45;9.15;;;6.93;;
28766;SDS011;15921;52.034;20.650;2023-07-13T00:12:22;10.35;;;6.97;;
28766;SDS011;15921;52.034;20.650;2023-07-13T00:14:51;9.82;;;6.57;;
28766;SDS011;15921;52.034;20.650;2023-07-13T00:17:17;11.75;;;6.60;;
28766;SDS011;15921;52.034;20.650;2023-07-13T00:19:42;10.05;;;6.75;;
28766;SDS011;15921;52.034;20.650;2023-07-13T00:22:08;15.25;;;6.68;;
28766;SDS011;15921;52.034;20.650;2023-07-13T00:24:34;13.68;;;6.68;;
28766;SDS011;15921;52.034;20.650;2023-07-13T00:27:01;10.95;;;6.90;;
28766;SDS011;15921;52.034;20.650;2023-07-13T00:29:26;9.23;;;6.85;;
28766;SDS011;15921;52.034;20.650;2023-07-13T00:31:52;12.00;;;7.00;;
28766;SDS011;15921;52.034;20.650;2023-07-13T00:34:18;11.35;;;7.40;;
28766;SDS011;15921;52.034;20.650;2023-07-13T00:36:44;11.55;;;6.72;;
28766;SDS011;15921;52.034;20.650;2023-07-13T00:39:09;7.97;;;6.32;;
28766;SDS011;15921;52.034;20.650;2023-07-13T00:41:35;9.07;;;6.38;;
28766;SDS011;15921;52.034;20.650;2023-07-13T00:44:02;9.77;;;5.82;;
28766;SDS011;15921;52.034;20.650;2023-07-13T00:46:29;11.43;;;6.20;;
28766;SDS011;15921;52.034;20.650;2023-07-13T00:48:57;9.90;;;6.90;;
28766;SDS011;15921;52.034;20.650;2023-07-13T00:51:33;9.32;;;6.20;;
28766;SDS011;15921;52.034;20.650;2023-07-13T00:54:13;9.82;;;6.30;;
28766;SDS011;15921;52.034;20.650;2023-07-13T00:56:45;12.02;;;6.53;;
28766;SDS011;15921;52.034;20.650;2023-07-13T00:59:15;10.88;;;6.97;;
28766;SDS011;15921;52.034;20.650;2023-07-13T01:01:42;13.80;;;6.35;;
28766;SDS011;15921;52.034;20.650;2023-07-13T01:04:08;9.90;;;7.00;;
28766;SDS011;15921;52.034;20.650;2023-07-13T01:06:36;11.73;;;8.10;;
28766;SDS011;15921;52.034;20.650;2023-07-13T01:09:03;9.70;;;7.25;;
28766;SDS011;15921;52.034;20.650;2023-07-13T01:11:29;9.38;;;6.03;;
28766;SDS011;15921;52.034;20.650;2023-07-13T01:13:55;11.75;;;6.53;;
28766;SDS011;15921;52.034;20.650;2023-07-13T01:16:23;8.95;;;6.78;;
28766;SDS011;15921;52.034;20.650;2023-07-13T01:18:51;12.35;;;7.40;;
28766;SDS011;15921;52.034;20.650;2023-07-13T01:21:17;9.70;;;6.78;;
28766;SDS011;15921;52.034;20.650;2023-07-13T01:23:44;10.82;;;7.10;;
28766;SDS011;15921;52.034;20.650;2023-07-13T01:26:09;11.15;;;6.82;;
28766;SDS011;15921;52.034;20.650;2023-07-13T01:28:36;13.85;;;9.13;;
28766;SDS011;15921;52.034;20.650;2023-07-13T01:31:03;14.30;;;8.05;;
28766;SDS011;15921;52.034;20.650;2023-07-13T01:33:29;9.63;;;7.50;;
28766;SDS011;15921;52.034;20.650;2023-07-13T01:35:54;9.98;;;7.28;;
28766;SDS011;15921;52.034;20.650;2023-07-13T01:38:22;12.05;;;7.72;;
28766;SDS011;15921;52.034;20.650;2023-07-13T01:40:52;9.90;;;7.28;;
28766;SDS011;15921;52.034;20.650;2023-07-13T01:43:18;11.13;;;6.80;;
28766;SDS011;15921;52.034;20.650;2023-07-13T01:45:45;10.63;;;6.95;;
28766;SDS011;15921;52.034;20.650;2023-07-13T01:48:11;11.88;;;7.22;;
28766;SDS011;15921;52.034;20.650;2023-07-13T01:50:36;11.43;;;7.20;;
28766;SDS011;15921;52.034;20.650;2023-07-13T01:53:03;10.30;;;7.60;;
28766;SDS011;15921;52.034;20.650;2023-07-13T01:55:29;13.10;;;7.32;;
28766;SDS011;15921;52.034;20.650;2023-07-13T01:57:56;12.73;;;7.05;;
28766;SDS011;15921;52.034;20.650;2023-07-13T02:00:22;11.60;;;7.13;;
28766;SDS011;15921;52.034;20.650;2023-07-13T02:02:47;9.40;;;7.25;;
28766;SDS011;15921;52.034;20.650;2023-07-13T02:05:13;12.13;;;7.35;;
28766;SDS011;15921;52.034;20.650;2023-07-13T02:07:39;11.18;;;7.55;;
28766;SDS011;15921;52.034;20.650;2023-07-13T02:10:06;8.32;;;6.82;;
28766;SDS011;15921;52.034;20.650;2023-07-13T02:12:33;10.77;;;7.18;;
28766;SDS011;15921;52.034;20.650;2023-07-13T02:14:59;10.82;;;7.90;;
28766;SDS011;15921;52.034;20.650;2023-07-13T02:17:25;8.32;;;6.93;;
28766;SDS011;15921;52.034;20.650;2023-07-13T02:19:51;11.20;;;7.57;;
28766;SDS011;15921;52.034;20.650;2023-07-13T02:22:17;8.90;;;6.88;;
28766;SDS011;15921;52.034;20.650;2023-07-13T02:24:43;12.55;;;8.15;;
28766;SDS011;15921;52.034;20.650;2023-07-13T02:27:08;10.95;;;7.35;;
28766;SDS011;15921;52.034;20.650;2023-07-13T02:29:34;9.90;;;7.05;;
28766;SDS011;15921;52.034;20.650;2023-07-13T02:32:00;11.75;;;6.78;;
28766;SDS011;15921;52.034;20.650;2023-07-13T02:34:26;10.70;;;7.30;;
28766;SDS011;15921;52.034;20.650;2023-07-13T02:36:51;10.23;;;7.85;;
28766;SDS011;15921;52.034;20.650;2023-07-13T02:39:17;10.63;;;6.95;;
28766;SDS011;15921;52.034;20.650;2023-07-13T02:41:43;11.98;;;7.18;;
28766;SDS011;15921;52.034;20.650;2023-07-13T02:44:09;11.93;;;7.03;;
28766;SDS011;15921;52.034;20.650;2023-07-13T02:46:35;10.40;;;6.85;;
28766;SDS011;15921;52.034;20.650;2023-07-13T02:49:02;7.70;;;6.13;;
28766;SDS011;15921;52.034;20.650;2023-07-13T02:51:29;8.77;;;7.03;;
28766;SDS011;15921;52.034;20.650;2023-07-13T02:53:55;11.93;;;6.80;;
28766;SDS011;15921;52.034;20.650;2023-07-13T02:56:24;12.18;;;6.63;;
28766;SDS011;15921;52.034;20.650;2023-07-13T02:58:52;13.82;;;7.28;;
28766;SDS011;15921;52.034;20.650;2023-07-13T03:01:19;11.18;;;6.88;;
28766;SDS011;15921;52.034;20.650;2023-07-13T03:03:46;10.23;;;6.57;;
28766;SDS011;15921;52.034;20.650;2023-07-13T03:06:11;10.85;;;7.38;;
28766;SDS011;15921;52.034;20.650;2023-07-13T03:08:38;14.25;;;7.43;;
28766;SDS011;15921;52.034;20.650;2023-07-13T03:11:05;11.95;;;7.68;;
28766;SDS011;15921;52.034;20.650;2023-07-13T03:13:40;10.43;;;6.70;;
28766;SDS011;15921;52.034;20.650;2023-07-13T03:16:08;11.32;;;7.22;;
28766;SDS011;15921;52.034;20.650;2023-07-13T03:18:35;11.02;;;7.15;;
28766;SDS011;15921;52.034;20.650;2023-07-13T03:21:01;8.80;;;6.72;;
28766;SDS011;15921;52.034;20.650;2023-07-13T03:23:27;8.70;;;6.45;;
28766;SDS011;15921;52.034;20.650;2023-07-13T03:26:11;9.77;;;6.57;;
28766;SDS011;15921;52.034;20.650;2023-07-13T03:28:39;14.95;;;7.53;;
28766;SDS011;15921;52.034;20.650;2023-07-13T03:31:07;11.65;;;7.20;;
28766;SDS011;15921;52.034;20.650;2023-07-13T03:33:37;9.45;;;6.68;;
28766;SDS011;15921;52.034;20.650;2023-07-13T03:36:03;9.25;;;6.80;;
28766;SDS011;15921;52.034;20.650;2023-07-13T03:38:30;11.32;;;7.13;;
28766;SDS011;15921;52.034;20.650;2023-07-13T03:40:57;11.68;;;7.55;;
28766;SDS011;15921;52.034;20.650;2023-07-13T03:43:22;13.68;;;8.02;;
28766;SDS011;15921;52.034;20.650;2023-07-13T03:45:48;10.45;;;7.03;;
28766;SDS011;15921;52.034;20.650;2023-07-13T03:48:14;14.60;;;7.53;;
28766;SDS011;15921;52.034;20.650;2023-07-13T03:50:40;11.82;;;7.82;;
28766;SDS011;15921;52.034;20.650;2023-07-13T03:53:05;10.13;;;7.07;;
28766;SDS011;15921;52.034;20.650;2023-07-13T03:55:31;10.70;;;6.72;;
28766;SDS011;15921;52.034;20.650;2023-07-13T03:57:58;8.63;;;7.32;;
28766;SDS011;15921;52.034;20.650;2023-07-13T04:00:26;11.02;;;7.95;;
28766;SDS011;15921;52.034;20.650;2023-07-13T04:02:52;15.30;;;7.70;;
28766;SDS011;15921;52.034;20.650;2023-07-13T04:05:18;12.18;;;7.47;;
28766;SDS011;15921;52.034;20.650;2023-07-13T04:07:44;13.02;;;8.88;;
28766;SDS011;15921;52.034;20.650;2023-07-13T04:10:09;16.60;;;8.52;;
28766;SDS011;15921;52.034;20.650;2023-07-13T04:12:35;10.90;;;8.07;;
28766;SDS011;15921;52.034;20.650;2023-07-13T04:15:01;11.90;;;7.82;;
28766;SDS011;15921;52.034;20.650;2023-07-13T04:17:26;8.70;;;7.00;;
28766;SDS011;15921;52.034;20.650;2023-07-13T04:19:52;10.55;;;7.10;;
28766;SDS011;15921;52.034;20.650;2023-07-13T04:22:18;11.13;;;8.13;;
28766;SDS011;15921;52.034;20.650;2023-07-13T04:24:43;11.07;;;8.05;;
28766;SDS011;15921;52.034;20.650;2023-07-13T04:27:09;11.48;;;7.45;;
28766;SDS011;15921;52.034;20.650;2023-07-13T04:29:35;9.65;;;7.40;;
28766;SDS011;15921;52.034;20.650;2023-07-13T04:32:00;11.00;;;7.38;;
28766;SDS011;15921;52.034;20.650;2023-07-13T04:34:26;11.00;;;7.95;;
28766;SDS011;15921;52.034;20.650;2023-07-13T04:36:52;9.65;;;7.38;;
28766;SDS011;15921;52.034;20.650;2023-07-13T04:39:17;12.18;;;7.40;;
28766;SDS011;15921;52.034;20.650;2023-07-13T04:41:43;10.45;;;7.18;;
28766;SDS011;15921;52.034;20.650;2023-07-13T04:44:09;12.70;;;7.18;;
28766;SDS011;15921;52.034;20.650;2023-07-13T04:46:35;12.32;;;6.47;;
28766;SDS011;15921;52.034;20.650;2023-07-13T04:49:00;10.20;;;7.28;;
28766;SDS011;15921;52.034;20.650;2023-07-13T04:51:29;9.63;;;7.18;;
28766;SDS011;15921;52.034;20.650;2023-07-13T04:53:54;11.23;;;7.63;;
28766;SDS011;15921;52.034;20.650;2023-07-13T04:56:20;11.38;;;8.25;;
28766;SDS011;15921;52.034;20.650;2023-07-13T04:58:46;10.40;;;7.97;;
28766;SDS011;15921;52.034;20.650;2023-07-13T05:01:11;12.55;;;7.88;;
28766;SDS011;15921;52.034;20.650;2023-07-13T05:03:38;10.65;;;7.70;;
28766;SDS011;15921;52.034;20.650;2023-07-13T05:06:05;13.38;;;7.88;;
28766;SDS011;15921;52.034;20.650;2023-07-13T05:08:32;11.45;;;7.55;;
28766;SDS011;15921;52.034;20.650;2023-07-13T05:11:01;8.00;;;6.68;;
28766;SDS011;15921;52.034;20.650;2023-07-13T05:13:28;12.43;;;7.75;;
28766;SDS011;15921;52.034;20.650;2023-07-13T05:16:00;11.93;;;8.10;;
28766;SDS011;15921;52.034;20.650;2023-07-13T05:18:28;9.15;;;7.38;;
28766;SDS011;15921;52.034;20.650;2023-07-13T05:21:08;12.70;;;8.43;;
28766;SDS011;15921;52.034;20.650;2023-07-13T05:23:35;10.27;;;7.55;;
28766;SDS011;15921;52.034;20.650;2023-07-13T05:26:01;11.80;;;8.50;;
28766;SDS011;15921;52.034;20.650;2023-07-13T05:28:28;10.10;;;7.75;;
28766;SDS011;15921;52.034;20.650;2023-07-13T05:30:55;11.18;;;8.13;;
28766;SDS011;15921;52.034;20.650;2023-07-13T05:33:20;10.38;;;7.70;;
28766;SDS011;15921;52.034;20.650;2023-07-13T05:35:47;13.63;;;7.60;;
28766;SDS011;15921;52.034;20.650;2023-07-13T05:38:12;9.57;;;7.38;;
28766;SDS011;15921;52.034;20.650;2023-07-13T05:40:38;14.02;;;6.78;;
28766;SDS011;15921;52.034;20.650;2023-07-13T05:43:04;10.10;;;6.72;;
28766;SDS011;15921;52.034;20.650;2023-07-13T05:45:29;9.32;;;6.22;;
28766;SDS011;15921;52.034;20.650;2023-07-13T05:47:55;9.65;;;7.00;;
28766;SDS011;15921;52.034;20.650;2023-07-13T05:50:21;10.68;;;6.82;;
28766;SDS011;15921;52.034;20.650;2023-07-13T05:52:46;9.70;;;7.20;;
28766;SDS011;15921;52.034;20.650;2023-07-13T05:55:12;9.35;;;7.10;;
28766;SDS011;15921;52.034;20.650;2023-07-13T05:57:38;11.25;;;7.18;;
28766;SDS011;15921;52.034;20.650;2023-07-13T06:00:04;9.77;;;6.93;;
28766;SDS011;15921;52.034;20.650;2023-07-13T06:02:30;9.80;;;6.88;;
28766;SDS011;15921;52.034;20.650;2023-07-13T06:04:56;10.75;;;6.53;;
28766;SDS011;15921;52.034;20.650;2023-07-13T06:07:22;11.43;;;6.55;;
28766;SDS011;15921;52.034;20.650;2023-07-13T06:09:47;8.88;;;6.50;;
28766;SDS011;15921;52.034;20.650;2023-07-13T06:12:13;8.43;;;6.65;;
28766;SDS011;15921;52.034;20.650;2023-07-13T06:14:38;10.25;;;7.20;;
28766;SDS011;15921;52.034;20.650;2023-07-13T06:17:04;13.85;;;7.13;;
28766;SDS011;15921;52.034;20.650;2023-07-13T06:19:31;8.63;;;6.22;;
28766;SDS011;15921;52.034;20.650;2023-07-13T06:21:57;12.93;;;6.88;;
28766;SDS011;15921;52.034;20.650;2023-07-13T06:24:23;8.98;;;6.55;;
28766;SDS011;15921;52.034;20.650;2023-07-13T06:26:49;15.45;;;7.20;;
28766;SDS011;15921;52.034;20.650;2023-07-13T06:29:15;10.15;;;7.20;;
28766;SDS011;15921;52.034;20.650;2023-07-13T06:31:41;12.48;;;8.27;;
28766;SDS011;15921;52.034;20.650;2023-07-13T06:34:07;10.88;;;6.95;;
28766;SDS011;15921;52.034;20.650;2023-07-13T06:36:33;9.40;;;7.22;;
28766;SDS011;15921;52.034;20.650;2023-07-13T06:38:59;15.05;;;10.23;;
28766;SDS011;15921;52.034;20.650;2023-07-13T06:41:24;13.48;;;9.40;;
28766;SDS011;15921;52.034;20.650;2023-07-13T06:43:53;14.32;;;10.65;;
28766;SDS011;15921;52.034;20.650;2023-07-13T06:46:22;13.20;;;10.45;;
28766;SDS011;15921;52.034;20.650;2023-07-13T06:48:48;17.50;;;11.40;;
28766;SDS011;15921;52.034;20.650;2023-07-13T06:51:14;19.42;;;12.32;;
28766;SDS011;15921;52.034;20.650;2023-07-13T06:53:41;17.65;;;10.35;;
28766;SDS011;15921;52.034;20.650;2023-07-13T06:56:08;16.70;;;10.20;;
28766;SDS011;15921;52.034;20.650;2023-07-13T06:58:35;17.58;;;10.85;;
28766;SDS011;15921;52.034;20.650;2023-07-13T07:01:01;12.35;;;9.68;;
28766;SDS011;15921;52.034;20.650;2023-07-13T07:03:28;15.98;;;10.35;;
28766;SDS011;15921;52.034;20.650;2023-07-13T07:05:53;10.98;;;8.27;;
28766;SDS011;15921;52.034;20.650;2023-07-13T07:08:25;11.60;;;9.30;;
28766;SDS011;15921;52.034;20.650;2023-07-13T07:10:50;13.75;;;8.68;;
28766;SDS011;15921;52.034;20.650;2023-07-13T07:13:19;15.82;;;10.25;;
28766;SDS011;15921;52.034;20.650;2023-07-13T07:15:45;11.65;;;8.20;;
28766;SDS011;15921;52.034;20.650;2023-07-13T07:18:10;13.70;;;8.73;;
28766;SDS011;15921;52.034;20.650;2023-07-13T07:20:36;17.08;;;9.00;;
28766;SDS011;15921;52.034;20.650;2023-07-13T07:23:02;12.35;;;8.85;;
28766;SDS011;15921;52.034;20.650;2023-07-13T07:25:28;13.00;;;9.43;;
28766;SDS011;15921;52.034;20.650;2023-07-13T07:27:57;10.65;;;8.38;;
28766;SDS011;15921;52.034;20.650;2023-07-13T07:30:23;11.82;;;8.95;;
28766;SDS011;15921;52.034;20.650;2023-07-13T07:32:49;11.82;;;9.55;;
28766;SDS011;15921;52.034;20.650;2023-07-13T07:35:15;14.18;;;9.00;;
28766;SDS011;15921;52.034;20.650;2023-07-13T07:37:41;13.20;;;9.40;;
28766;SDS011;15921;52.034;20.650;2023-07-13T07:40:07;13.30;;;9.55;;
28766;SDS011;15921;52.034;20.650;2023-07-13T07:42:33;11.77;;;8.45;;
28766;SDS011;15921;52.034;20.650;2023-07-13T07:44:59;14.77;;;8.90;;
28766;SDS011;15921;52.034;20.650;2023-07-13T07:47:26;12.38;;;9.40;;
28766;SDS011;15921;52.034;20.650;2023-07-13T07:49:52;13.15;;;8.40;;
28766;SDS011;15921;52.034;20.650;2023-07-13T07:52:18;20.90;;;10.15;;
28766;SDS011;15921;52.034;20.650;2023-07-13T07:54:43;10.75;;;8.35;;
28766;SDS011;15921;52.034;20.650;2023-07-13T07:57:09;18.98;;;9.93;;
28766;SDS011;15921;52.034;20.650;2023-07-13T07:59:36;13.18;;;8.88;;
28766;SDS011;15921;52.034;20.650;2023-07-13T08:02:02;12.60;;;9.43;;
28766;SDS011;15921;52.034;20.650;2023-07-13T08:04:28;14.45;;;9.45;;
28766;SDS011;15921;52.034;20.650;2023-07-13T08:06:54;15.20;;;9.50;;
28766;SDS011;15921;52.034;20.650;2023-07-13T08:09:21;13.43;;;8.85;;
28766;SDS011;15921;52.034;20.650;2023-07-13T08:11:47;12.73;;;8.27;;
28766;SDS011;15921;52.034;20.650;2023-07-13T08:14:12;10.52;;;8.40;;
28766;SDS011;15921;52.034;20.650;2023-07-13T08:16:39;12.93;;;8.57;;
28766;SDS011;15921;52.034;20.650;2023-07-13T08:19:05;12.57;;;9.20;;
28766;SDS011;15921;52.034;20.650;2023-07-13T08:21:31;11.38;;;8.07;;
28766;SDS011;15921;52.034;20.650;2023-07-13T08:23:57;14.20;;;9.13;;
28766;SDS011;15921;52.034;20.650;2023-07-13T08:26:23;14.52;;;8.60;;
28766;SDS011;15921;52.034;20.650;2023-07-13T08:28:48;13.38;;;8.68;;
28766;SDS011;15921;52.034;20.650;2023-07-13T08:31:14;13.68;;;9.02;;
28766;SDS011;15921;52.034;20.650;2023-07-13T08:33:40;14.25;;;9.15;;
28766;SDS011;15921;52.034;20.650;2023-07-13T08:36:06;12.32;;;9.00;;
28766;SDS011;15921;52.034;20.650;2023-07-13T08:38:31;11.73;;;8.27;;
28766;SDS011;15921;52.034;20.650;2023-07-13T08:40:57;13.55;;;8.73;;
28766;SDS011;15921;52.034;20.650;2023-07-13T08:43:28;10.75;;;8.43;;
28766;SDS011;15921;52.034;20.650;2023-07-13T08:45:59;18.33;;;9.38;;
28766;SDS011;15921;52.034;20.650;2023-07-13T08:48:51;22.75;;;8.55;;
28766;SDS011;15921;52.034;20.650;2023-07-13T08:54:34;13.32;;;8.57;;
28766;SDS011;15921;52.034;20.650;2023-07-13T08:57:02;12.30;;;8.52;;
28766;SDS011;15921;52.034;20.650;2023-07-13T08:59:37;11.48;;;8.73;;
28766;SDS011;15921;52.034;20.650;2023-07-13T09:05:04;12.15;;;7.97;;
28766;SDS011;15921;52.034;20.650;2023-07-13T09:10:21;9.35;;;7.22;;
28766;SDS011;15921;52.034;20.650;2023-07-13T09:15:26;10.95;;;8.13;;
28766;SDS011;15921;52.034;20.650;2023-07-13T09:21:10;13.05;;;9.18;;
28766;SDS011;15921;52.034;20.650;2023-07-13T09:23:42;13.93;;;8.60;;
28766;SDS011;15921;52.034;20.650;2023-07-13T09:26:12;12.10;;;8.20;;
28766;SDS011;15921;52.034;20.650;2023-07-13T09:28:42;10.88;;;8.20;;
28766;SDS011;15921;52.034;20.650;2023-07-13T09:31:17;11.93;;;7.82;;
28766;SDS011;15921;52.034;20.650;2023-07-13T09:33:48;11.63;;;7.93;;
28766;SDS011;15921;52.034;20.650;2023-07-13T09:36:26;9.25;;;8.18;;
28766;SDS011;15921;52.034;20.650;2023-07-13T09:39:03;9.00;;;7.47;;
28766;SDS011;15921;52.034;20.650;2023-07-13T09:41:46;11.85;;;7.75;;
28766;SDS011;15921;52.034;20.650;2023-07-13T09:44:34;12.10;;;8.05;;
28766;SDS011;15921;52.034;20.650;2023-07-13T09:47:02;9.95;;;7.00;;
28766;SDS011;15921;52.034;20.650;2023-07-13T09:49:35;14.35;;;7.45;;
28766;SDS011;15921;52.034;20.650;2023-07-13T09:52:02;8.63;;;6.90;;
28766;SDS011;15921;52.034;20.650;2023-07-13T09:54:32;10.43;;;8.35;;
28766;SDS011;15921;52.034;20.650;2023-07-13T09:57:00;8.98;;;7.97;;
28766;SDS011;15921;52.034;20.650;2023-07-13T09:59:33;12.20;;;7.72;;
28766;SDS011;15921;52.034;20.650;2023-07-13T10:02:01;15.55;;;8.07;;
28766;SDS011;15921;52.034;20.650;2023-07-13T10:04:31;16.80;;;8.57;;
28766;SDS011;15921;52.034;20.650;2023-07-13T10:07:09;8.60;;;7.47;;
28766;SDS011;15921;52.034;20.650;2023-07-13T10:09:38;13.30;;;8.60;;
28766;SDS011;15921;52.034;20.650;2023-07-13T10:12:04;17.10;;;8.35;;
28766;SDS011;15921;52.034;20.650;2023-07-13T10:14:39;9.90;;;8.00;;
28766;SDS011;15921;52.034;20.650;2023-07-13T10:17:08;11.60;;;8.32;;
28766;SDS011;15921;52.034;20.650;2023-07-13T10:19:39;12.50;;;7.85;;
28766;SDS011;15921;52.034;20.650;2023-07-13T10:22:19;12.68;;;8.00;;
28766;SDS011;15921;52.034;20.650;2023-07-13T10:25:18;11.68;;;8.25;;
28766;SDS011;15921;52.034;20.650;2023-07-13T10:27:47;13.25;;;8.15;;
28766;SDS011;15921;52.034;20.650;2023-07-13T10:30:21;10.55;;;7.22;;
28766;SDS011;15921;52.034;20.650;2023-07-13T10:32:57;8.48;;;7.45;;
28766;SDS011;15921;52.034;20.650;2023-07-13T10:35:25;11.80;;;7.45;;
28766;SDS011;15921;52.034;20.650;2023-07-13T10:38:03;8.98;;;6.72;;
28766;SDS011;15921;52.034;20.650;2023-07-13T10:40:43;15.02;;;7.85;;
28766;SDS011;15921;52.034;20.650;2023-07-13T10:46:07;8.93;;;7.05;;
28766;SDS011;15921;52.034;20.650;2023-07-13T10:48:36;9.27;;;6.50;;
28766;SDS011;15921;52.034;20.650;2023-07-13T10:51:04;8.18;;;6.78;;
28766;SDS011;15921;52.034;20.650;2023-07-13T10:53:35;7.75;;;6.35;;
28766;SDS011;15921;52.034;20.650;2023-07-13T10:56:03;6.68;;;4.38;;
28766;SDS011;15921;52.034;20.650;2023-07-13T10:59:01;11.15;;;3.33;;
28766;SDS011;15921;52.034;20.650;2023-07-13T11:01:48;5.40;;;3.67;;
28766;SDS011;15921;52.034;20.650;2023-07-13T11:04:14;5.68;;;3.70;;
28766;SDS011;15921;52.034;20.650;2023-07-13T11:06:41;7.43;;;3.50;;
28766;SDS011;15921;52.034;20.650;2023-07-13T11:11:56;4.82;;;3.67;;
28766;SDS011;15921;52.034;20.650;2023-07-13T11:20:20;4.70;;;3.22;;
28766;SDS011;15921;52.034;20.650;2023-07-13T11:25:41;11.57;;;3.72;;
28766;SDS011;15921;52.034;20.650;2023-07-13T11:30:37;8.00;;;4.25;;
28766;SDS011;15921;52.034;20.650;2023-07-13T11:35:57;6.90;;;4.60;;
28766;SDS011;15921;52.034;20.650;2023-07-13T11:40:56;8.25;;;4.72;;
28766;SDS011;15921;52.034;20.650;2023-07-13T11:43:28;8.02;;;4.40;;
28766;SDS011;15921;52.034;20.650;2023-07-13T11:45:54;7.43;;;4.78;;
28766;SDS011;15921;52.034;20.650;2023-07-13T11:48:21;9.73;;;4.60;;
28766;SDS011;15921;52.034;20.650;2023-07-13T11:50:57;7.35;;;4.38;;
28766;SDS011;15921;52.034;20.650;2023-07-13T11:53:29;5.57;;;4.18;;
28766;SDS011;15921;52.034;20.650;2023-07-13T11:56:03;6.90;;;4.35;;
28766;SDS011;15921;52.034;20.650;2023-07-13T11:58:29;8.63;;;4.70;;
28766;SDS011;15921;52.034;20.650;2023-07-13T12:00:55;6.28;;;4.47;;
28766;SDS011;15921;52.034;20.650;2023-07-13T12:03:24;5.65;;;4.22;;
28766;SDS011;15921;52.034;20.650;2023-07-13T12:06:01;5.57;;;3.88;;
28766;SDS011;15921;52.034;20.650;2023-07-13T12:08:30;5.30;;;3.60;;
28766;SDS011;15921;52.034;20.650;2023-07-13T12:11:04;7.43;;;4.10;;
28766;SDS011;15921;52.034;20.650;2023-07-13T12:13:35;7.35;;;4.30;;
28766;SDS011;15921;52.034;20.650;2023-07-13T12:16:08;8.00;;;3.83;;
28766;SDS011;15921;52.034;20.650;2023-07-13T12:18:41;6.72;;;3.45;;
28766;SDS011;15921;52.034;20.650;2023-07-13T12:21:12;7.82;;;3.80;;
28766;SDS011;15921;52.034;20.650;2023-07-13T12:23:39;4.97;;;3.00;;
28766;SDS011;15921;52.034;20.650;2023-07-13T12:26:09;4.22;;;3.08;;
28766;SDS011;15921;52.034;20.650;2023-07-13T12:28:44;5.60;;;3.25;;
28766;SDS011;15921;52.034;20.650;2023-07-13T12:31:44;6.95;;;3.63;;
28766;SDS011;15921;52.034;20.650;2023-07-13T12:34:06;6.22;;;3.63;;
28766;SDS011;15921;52.034;20.650;2023-07-13T12:37:00;4.63;;;3.30;;
28766;SDS011;15921;52.034;20.650;2023-07-13T12:39:33;8.07;;;4.75;;
28766;SDS011;15921;52.034;20.650;2023-07-13T12:45:02;9.75;;;5.90;;
28766;SDS011;15921;52.034;20.650;2023-07-13T12:47:41;8.48;;;5.32;;
28766;SDS011;15921;52.034;20.650;2023-07-13T12:50:15;7.13;;;5.25;;
28766;SDS011;15921;52.034;20.650;2023-07-13T12:52:43;8.15;;;5.50;;
28766;SDS011;15921;52.034;20.650;2023-07-13T12:55:16;8.83;;;5.53;;
28766;SDS011;15921;52.034;20.650;2023-07-13T12:57:53;7.63;;;4.80;;
28766;SDS011;15921;52.034;20.650;2023-07-13T13:02:57;7.22;;;4.25;;
28766;SDS011;15921;52.034;20.650;2023-07-13T13:05:28;8.00;;;4.45;;
28766;SDS011;15921;52.034;20.650;2023-07-13T13:07:55;8.55;;;4.82;;
28766;SDS011;15921;52.034;20.650;2023-07-13T13:10:21;6.68;;;5.05;;
28766;SDS011;15921;52.034;20.650;2023-07-13T13:12:47;6.32;;;4.57;;
28766;SDS011;15921;52.034;20.650;2023-07-13T13:15:13;6.30;;;4.75;;
28766;SDS011;15921;52.034;20.650;2023-07-13T13:17:39;9.27;;;4.90;;
28766;SDS011;15921;52.034;20.650;2023-07-13T13:20:18;7.45;;;5.00;;
28766;SDS011;15921;52.034;20.650;2023-07-13T13:22:45;8.10;;;4.05;;
28766;SDS011;15921;52.034;20.650;2023-07-13T13:25:11;6.47;;;4.10;;
28766;SDS011;15921;52.034;20.650;2023-07-13T13:27:38;7.60;;;4.72;;
28766;SDS011;15921;52.034;20.650;2023-07-13T13:30:12;10.18;;;4.57;;
28766;SDS011;15921;52.034;20.650;2023-07-13T13:32:40;11.85;;;5.93;;
28766;SDS011;15921;52.034;20.650;2023-07-13T13:35:25;12.20;;;5.85;;
28766;SDS011;15921;52.034;20.650;2023-07-13T13:37:52;9.57;;;5.22;;
28766;SDS011;15921;52.034;20.650;2023-07-13T13:40:18;8.40;;;5.35;;
28766;SDS011;15921;52.034;20.650;2023-07-13T13:42:48;8.00;;;5.20;;
28766;SDS011;15921;52.034;20.650;2023-07-13T13:45:14;7.35;;;4.20;;
28766;SDS011;15921;52.034;20.650;2023-07-13T13:47:43;10.00;;;5.10;;
28766;SDS011;15921;52.034;20.650;2023-07-13T13:50:19;6.20;;;4.75;;
28766;SDS011;15921;52.034;20.650;2023-07-13T13:52:49;7.30;;;4.28;;
28766;SDS011;15921;52.034;20.650;2023-07-13T13:55:17;6.15;;;4.68;;
28766;SDS011;15921;52.034;20.650;2023-07-13T13:57:45;5.57;;;4.25;;
28766;SDS011;15921;52.034;20.650;2023-07-13T14:00:11;7.25;;;4.82;;
28766;SDS011;15921;52.034;20.650;2023-07-13T14:02:39;7.10;;;4.57;;
28766;SDS011;15921;52.034;20.650;2023-07-13T14:05:09;8.02;;;5.05;;
28766;SDS011;15921;52.034;20.650;2023-07-13T14:07:37;6.45;;;4.55;;
28766;SDS011;15921;52.034;20.650;2023-07-13T14:10:05;11.50;;;7.38;;
28766;SDS011;15921;52.034;20.650;2023-07-13T14:12:40;8.65;;;5.75;;
28766;SDS011;15921;52.034;20.650;2023-07-13T14:15:42;5.18;;;4.28;;
28766;SDS011;15921;52.034;20.650;2023-07-13T14:18:01;8.02;;;5.35;;
28766;SDS011;15921;52.034;20.650;2023-07-13T14:20:27;7.03;;;4.72;;
28766;SDS011;15921;52.034;20.650;2023-07-13T14:22:54;9.38;;;5.43;;
28766;SDS011;15921;52.034;20.650;2023-07-13T14:25:20;7.00;;;4.65;;
28766;SDS011;15921;52.034;20.650;2023-07-13T14:27:48;7.47;;;4.15;;
28766;SDS011;15921;52.034;20.650;2023-07-13T14:30:18;5.57;;;4.38;;
28766;SDS011;15921;52.034;20.650;2023-07-13T14:32:45;7.68;;;4.70;;
28766;SDS011;15921;52.034;20.650;2023-07-13T14:35:15;5.32;;;4.43;;
28766;SDS011;15921;52.034;20.650;2023-07-13T14:37:43;5.60;;;4.20;;
28766;SDS011;15921;52.034;20.650;2023-07-13T14:42:38;7.50;;;4.88;;
28766;SDS011;15921;52.034;20.650;2023-07-13T14:45:04;6.68;;;4.78;;
28766;SDS011;15921;52.034;20.650;2023-07-13T14:47:30;6.07;;;4.35;;
28766;SDS011;15921;52.034;20.650;2023-07-13T14:49:56;6.88;;;4.07;;
28766;SDS011;15921;52.034;20.650;2023-07-13T14:52:22;5.78;;;4.32;;
28766;SDS011;15921;52.034;20.650;2023-07-13T14:54:49;7.28;;;4.38;;
28766;SDS011;15921;52.034;20.650;2023-07-13T14:57:16;6.00;;;4.10;;
28766;SDS011;15921;52.034;20.650;2023-07-13T14:59:44;7.50;;;4.88;;
28766;SDS011;15921;52.034;20.650;2023-07-13T15:04:41;6.30;;;3.88;;
28766;SDS011;15921;52.034;20.650;2023-07-13T15:07:09;5.95;;;4.30;;
28766;SDS011;15921;52.034;20.650;2023-07-13T15:09:35;6.28;;;4.35;;
28766;SDS011;15921;52.034;20.650;2023-07-13T15:12:01;6.97;;;4.95;;
28766;SDS011;15921;52.034;20.650;2023-07-13T15:14:28;5.68;;;4.38;;
28766;SDS011;15921;52.034;20.650;2023-07-13T15:16:54;7.45;;;4.15;;
28766;SDS011;15921;52.034;20.650;2023-07-13T15:19:21;9.05;;;5.25;;
28766;SDS011;15921;52.034;20.650;2023-07-13T15:21:48;12.52;;;5.40;;